Time;durP1;ratioP1;P1;durP2;ratioP2;P2;SDS_P1;SDS_P2;PMS_P1;PMS_P2;Temp;Humidity;BMP_temperature;BMP_pressure;BME280_temperature;BME280_humidity;BME280_pressure;Samples;Min_cycle;Max_cycle;Signal;HPM_P1;HPM_P2
2022/03/20 00:00:27;;;;;;;20.80;10.90;;;;;;;3.58;53.30;99923.09;5022366;28;20044;-68
2022/03/20 00:02:54;;;;;;;23.30;10.60;;;;;;;3.73;50.68;99919.13;5022251;28;21844;-69
2022/03/20 00:05:20;;;;;;;20.52;10.73;;;;;;;3.69;51.78;99907.00;5022958;28;20148;-68
2022/03/20 00:07:46;;;;;;;19.10;10.80;;;;;;;3.99;50.25;99924.03;5024617;28;20119;-68
2022/03/20 00:10:13;;;;;;;19.88;10.70;;;;;;;4.07;49.07;99916.19;5022858;28;20034;-68
2022/03/20 00:12:38;;;;;;;23.30;10.45;;;;;;;4.16;48.38;99901.97;5024182;28;20033;-68
2022/03/20 00:15:05;;;;;;;19.30;9.88;;;;;;;4.30;47.97;99902.59;5022304;28;20033;-68
2022/03/20 00:17:30;;;;;;;19.63;9.90;;;;;;;4.43;48.07;99923.78;5023784;28;20025;-68
2022/03/20 00:19:56;;;;;;;20.98;10.27;;;;;;;4.44;48.44;99918.28;5019985;28;20053;-68
2022/03/20 00:22:22;;;;;;;19.85;10.35;;;;;;;4.28;48.65;99915.28;5018860;28;20060;-68
2022/03/20 00:24:47;;;;;;;20.30;10.55;;;;;;;4.13;49.51;99912.13;5025513;28;20036;-68
2022/03/20 00:27:14;;;;;;;24.00;11.55;;;;;;;4.21;49.08;99911.44;5063097;22;20022;-72
2022/03/20 00:29:40;;;;;;;20.75;10.65;;;;;;;4.11;49.16;99896.19;5034127;28;20533;-73
2022/03/20 00:32:07;;;;;;;23.00;10.35;;;;;;;4.23;49.33;99901.44;5022655;28;20029;-73
2022/03/20 00:34:32;;;;;;;21.05;11.27;;;;;;;4.28;48.35;99912.59;5019031;28;20099;-73
2022/03/20 00:36:58;;;;;;;22.38;11.10;;;;;;;4.23;48.55;99880.03;5023727;28;20045;-73
2022/03/20 00:39:23;;;;;;;22.60;10.52;;;;;;;4.42;48.10;99904.19;5004625;28;20052;-73
2022/03/20 00:41:48;;;;;;;20.42;10.77;;;;;;;4.09;48.25;99858.00;5004880;28;20048;-73
2022/03/20 00:44:14;;;;;;;23.10;11.55;;;;;;;4.39;48.58;99907.13;5005900;28;20029;-73
2022/03/20 00:46:39;;;;;;;18.52;10.52;;;;;;;4.33;48.41;99891.63;5008842;28;20026;-73
2022/03/20 00:49:07;;;;;;;22.33;11.02;;;;;;;4.41;47.99;99910.53;5007814;28;20125;-73
2022/03/20 00:51:33;;;;;;;18.38;10.77;;;;;;;4.33;48.13;99894.28;5009711;28;20048;-73
2022/03/20 00:53:59;;;;;;;20.60;10.50;;;;;;;4.31;48.11;99888.22;5009322;28;20484;-73
2022/03/20 00:56:25;;;;;;;19.83;10.35;;;;;;;4.29;48.45;99888.34;5008609;28;20025;-72
2022/03/20 00:58:50;;;;;;;22.08;11.02;;;;;;;4.26;48.27;99879.75;5008035;28;20045;-72
2022/03/20 01:01:16;;;;;;;18.13;11.00;;;;;;;3.97;47.98;99831.44;5006546;28;20028;-72
2022/03/20 01:03:42;;;;;;;19.27;10.60;;;;;;;4.32;47.83;99881.88;5007795;28;20091;-72
2022/03/20 01:06:08;;;;;;;23.58;10.23;;;;;;;4.29;48.21;99882.97;5010193;28;20022;-72
2022/03/20 01:08:35;;;;;;;20.05;10.35;;;;;;;4.47;48.27;99901.94;5001526;28;20507;-72
2022/03/20 01:11:04;;;;;;;24.08;10.70;;;;;;;4.49;47.62;99908.00;5004990;28;20044;-72
2022/03/20 01:13:29;;;;;;;21.77;11.68;;;;;;;4.41;48.05;99894.44;5008055;28;20018;-72
2022/03/20 01:15:56;;;;;;;23.13;10.52;;;;;;;4.23;47.39;99845.19;5007817;28;21446;-73
2022/03/20 01:18:24;;;;;;;21.40;10.32;;;;;;;4.38;47.68;99878.66;5004998;28;20542;-73
2022/03/20 01:20:50;;;;;;;20.03;11.20;;;;;;;4.46;48.05;99902.09;5003317;28;20033;-72
2022/03/20 01:23:16;;;;;;;20.83;10.45;;;;;;;4.24;48.37;99865.63;5008860;28;20530;-72
2022/03/20 01:25:42;;;;;;;20.23;10.23;;;;;;;4.41;48.28;99891.78;5006867;28;20116;-73
2022/03/20 01:28:07;;;;;;;18.42;10.57;;;;;;;4.36;48.58;99883.28;5006995;28;20053;-73
2022/03/20 01:30:33;;;;;;;23.42;11.35;;;;;;;4.32;48.02;99876.50;4999993;28;20030;-71
2022/03/20 01:32:58;;;;;;;22.35;11.30;;;;;;;4.36;48.38;99886.81;5005825;28;20056;-72
2022/03/20 01:35:23;;;;;;;22.70;11.30;;;;;;;4.23;48.33;99856.75;5002973;28;20061;-72
2022/03/20 01:37:50;;;;;;;19.23;10.77;;;;;;;4.30;48.66;99867.78;5006082;28;20022;-72
2022/03/20 01:40:15;;;;;;;20.38;10.45;;;;;;;4.28;48.71;99859.88;5001815;28;20110;-72
2022/03/20 01:42:41;;;;;;;21.02;10.32;;;;;;;4.24;49.02;99855.75;5007541;28;20041;-73
2022/03/20 01:45:18;;;;;;;20.95;11.65;;;;;;;4.20;48.96;99857.03;5009316;28;20026;-72
2022/03/20 01:47:47;;;;;;;20.15;11.25;;;;;;;4.26;49.30;99877.91;5002206;28;20026;-71
2022/03/20 01:50:22;;;;;;;18.85;10.60;;;;;;;4.09;49.70;99849.13;5002366;28;20026;-71
2022/03/20 01:52:50;;;;;;;22.05;11.27;;;;;;;4.09;49.27;99863.34;5007763;28;22460;-72
2022/03/20 01:55:20;;;;;;;24.38;11.10;;;;;;;4.18;49.47;99870.56;5003056;28;20029;-71
2022/03/20 01:57:46;;;;;;;21.02;11.15;;;;;;;4.11;49.87;99853.34;5004307;28;20022;-72
2022/03/20 02:00:15;;;;;;;20.02;11.55;;;;;;;4.06;49.33;99841.31;5003217;28;20032;-72
2022/03/20 02:02:40;;;;;;;21.85;10.90;;;;;;;3.96;49.79;99822.56;5001310;28;20559;-71
2022/03/20 02:05:09;;;;;;;21.00;11.20;;;;;;;4.18;49.80;99856.31;5007790;28;20160;-71
2022/03/20 02:07:34;;;;;;;25.63;11.65;;;;;;;4.26;49.99;99869.88;5000251;28;20575;-71
2022/03/20 02:10:01;;;;;;;23.58;12.35;;;;;;;4.22;49.46;99863.09;5004314;28;20116;-72
2022/03/20 02:12:28;;;;;;;21.55;11.82;;;;;;;4.22;49.47;99860.44;4998323;28;20049;-72
2022/03/20 02:14:54;;;;;;;25.38;12.60;;;;;;;4.25;49.65;99864.66;5002696;28;20036;-72
2022/03/20 02:17:20;;;;;;;23.50;11.73;;;;;;;4.22;49.22;99838.13;5003326;28;20091;-71
2022/03/20 02:19:46;;;;;;;22.73;11.35;;;;;;;4.17;49.89;99851.97;5006172;28;20068;-73
2022/03/20 02:22:11;;;;;;;22.45;11.52;;;;;;;4.05;50.02;99816.38;5009937;28;20036;-73
2022/03/20 02:24:41;;;;;;;20.92;11.70;;;;;;;4.28;50.04;99845.63;5010107;28;20021;-73
2022/03/20 02:27:17;;;;;;;22.05;11.20;;;;;;;4.08;50.04;99829.50;5008804;28;20475;-72
2022/03/20 02:29:49;;;;;;;22.85;11.25;;;;;;;4.22;50.14;99846.16;5003052;28;20049;-71
2022/03/20 02:32:17;;;;;;;21.80;11.98;;;;;;;4.18;50.09;99835.72;5007460;28;20022;-71
2022/03/20 02:34:47;;;;;;;21.42;11.63;;;;;;;4.20;50.18;99832.09;5009657;28;20475;-72
2022/03/20 02:37:13;;;;;;;22.40;11.63;;;;;;;4.17;50.05;99826.00;5006249;28;20083;-72
2022/03/20 02:39:40;;;;;;;22.60;11.23;;;;;;;4.21;50.88;99845.31;5006517;28;20070;-72
2022/03/20 02:42:07;;;;;;;21.80;11.63;;;;;;;4.22;50.94;99841.69;5009067;28;20033;-73
2022/03/20 02:45:00;;;;;;;23.30;11.95;;;;;;;4.27;50.45;99846.59;5005539;28;20030;-72
2022/03/20 02:47:27;;;;;;;22.30;11.77;;;;;;;4.26;51.32;99839.56;5022106;28;20540;-74
2022/03/20 02:50:05;;;;;;;25.75;12.23;;;;;;;4.02;50.90;99795.25;5021586;28;20029;-72
2022/03/20 02:52:43;;;;;;;25.67;12.02;;;;;;;4.27;50.57;99835.88;5007537;28;20121;-72
2022/03/20 02:55:08;;;;;;;24.00;12.07;;;;;;;4.26;51.31;99829.69;5011344;28;20045;-72
2022/03/20 02:57:34;;;;;;;25.42;11.80;;;;;;;4.27;50.82;99834.09;5012180;28;20026;-72
2022/03/20 03:00:04;;;;;;;25.33;12.50;;;;;;;4.06;51.33;99794.00;5009132;28;20022;-73
2022/03/20 03:02:34;;;;;;;24.75;12.05;;;;;;;3.89;51.38;99776.75;5025213;28;20050;-72
2022/03/20 03:05:00;;;;;;;25.52;11.65;;;;;;;4.20;51.79;99829.41;5008681;28;20022;-72
2022/03/20 03:07:30;;;;;;;26.02;12.38;;;;;;;3.92;51.45;99786.34;5008202;28;20029;-72
2022/03/20 03:12:40;;;;;;;23.42;12.32;;;;;;;4.22;51.88;99846.16;5009935;28;20069;-72
2022/03/20 03:15:21;;;;;;;22.15;12.13;;;;;;;4.18;51.79;99840.25;5009203;28;20025;-72
2022/03/20 03:17:48;;;;;;;25.10;12.55;;;;;;;4.14;52.17;99836.16;5012942;28;20080;-72
2022/03/20 03:20:13;;;;;;;22.60;12.10;;;;;;;4.00;52.11;99805.22;5005849;28;20030;-73
2022/03/20 03:22:39;;;;;;;25.58;12.27;;;;;;;4.17;52.07;99826.00;5009917;28;20057;-72
2022/03/20 03:25:05;;;;;;;23.67;11.93;;;;;;;4.29;52.44;99839.28;5013466;28;20022;-73
2022/03/20 03:27:31;;;;;;;22.50;12.88;;;;;;;4.16;52.72;99832.34;5002530;28;20042;-72
2022/03/20 03:29:56;;;;;;;24.20;13.73;;;;;;;4.09;52.38;99819.66;5009728;28;20435;-72
2022/03/20 03:32:22;;;;;;;25.92;12.45;;;;;;;4.23;52.14;99845.19;5009459;28;20099;-72
2022/03/20 03:37:32;;;;;;;25.10;12.77;;;;;;;4.21;53.08;99844.47;5003894;28;20445;-72
2022/03/20 03:39:58;;;;;;;25.70;12.50;;;;;;;4.22;52.89;99849.72;5011199;28;20108;-72
2022/03/20 03:42:24;;;;;;;22.13;12.48;;;;;;;4.15;52.95;99836.00;5004670;28;20032;-72
2022/03/20 03:44:50;;;;;;;21.98;11.63;;;;;;;4.24;52.69;99846.88;5009154;28;20030;-77
2022/03/20 03:47:15;;;;;;;25.65;12.77;;;;;;;4.24;53.70;99839.69;5012509;28;20022;-73
2022/03/20 03:49:41;;;;;;;30.63;12.15;;;;;;;4.14;53.43;99822.78;5009974;28;20029;-72
2022/03/20 03:52:06;;;;;;;22.67;12.40;;;;;;;4.10;53.63;99830.22;5007814;28;20072;-72
2022/03/20 03:54:32;;;;;;;21.73;12.20;;;;;;;3.94;54.13;99820.03;5011777;28;20084;-73
2022/03/20 03:56:58;;;;;;;24.77;13.10;;;;;;;4.03;54.27;99845.13;5007675;28;20025;-73
2022/03/20 03:59:24;;;;;;;26.38;12.50;;;;;;;4.00;53.97;99820.47;5005309;28;20112;-73
2022/03/20 04:01:49;;;;;;;22.92;12.10;;;;;;;4.03;54.71;99828.22;5007828;28;20026;-72
2022/03/20 04:04:14;;;;;;;25.58;12.77;;;;;;;3.97;54.49;99834.97;5008126;28;20033;-73
2022/03/20 04:06:40;;;;;;;25.35;14.13;;;;;;;4.04;54.06;99833.44;5023765;28;20499;-72
2022/03/20 04:09:05;;;;;;;22.48;12.65;;;;;;;4.00;54.22;99813.28;5008836;28;20030;-73
2022/03/20 04:11:32;;;;;;;26.05;12.93;;;;;;;4.01;54.72;99831.06;5007025;28;20049;-73
2022/03/20 04:13:57;;;;;;;22.65;12.88;;;;;;;3.93;54.08;99814.81;5021103;28;20030;-72
2022/03/20 04:16:23;;;;;;;27.00;13.50;;;;;;;4.17;54.47;99812.63;5006939;28;20029;-73
2022/03/20 04:18:48;;;;;;;22.48;12.40;;;;;;;4.27;54.29;99827.84;5007163;28;20038;-73
2022/03/20 04:21:13;;;;;;;24.15;12.93;;;;;;;4.08;54.64;99793.84;5005810;28;20041;-73
2022/03/20 04:23:51;;;;;;;24.65;13.52;;;;;;;4.23;54.37;99818.41;5005146;28;20049;-73
2022/03/20 04:26:18;;;;;;;27.52;12.98;;;;;;;4.25;54.05;99797.69;5005189;28;20522;-72
2022/03/20 04:28:46;;;;;;;27.58;13.93;;;;;;;4.47;54.04;99824.22;5004961;28;20063;-72
2022/03/20 04:31:15;;;;;;;25.83;13.82;;;;;;;4.55;54.68;99827.06;5006706;28;20113;-72
2022/03/20 04:33:45;;;;;;;25.02;13.32;;;;;;;4.39;54.65;99816.88;5003555;28;20633;-72
2022/03/20 04:36:10;;;;;;;24.33;13.20;;;;;;;4.36;54.67;99819.00;5005324;28;20053;-73
2022/03/20 04:38:36;;;;;;;26.13;13.68;;;;;;;4.28;55.48;99810.81;5010737;28;20034;-73
2022/03/20 04:41:02;;;;;;;26.55;14.32;;;;;;;4.46;54.98;99827.91;5008625;28;20116;-73
2022/03/20 04:43:27;;;;;;;27.38;14.35;;;;;;;4.29;54.77;99788.38;5002675;28;20103;-72
2022/03/20 04:45:53;;;;;;;23.38;12.52;;;;;;;4.28;54.78;99792.06;5005557;28;20045;-72
2022/03/20 04:59:29;;;;;;;27.08;14.20;;;;;;;4.26;55.56;99804.75;5009988;28;21012;-73
2022/03/20 05:01:54;;;;;;;25.77;13.45;;;;;;;4.37;56.01;99828.72;5009879;28;20073;-72
2022/03/20 05:04:19;;;;;;;25.20;13.45;;;;;;;4.23;56.13;99823.78;5008324;28;20029;-72
2022/03/20 05:06:45;;;;;;;22.58;12.93;;;;;;;4.14;55.90;99825.44;5007555;28;20034;-72
2022/03/20 05:14:40;;;;;;;28.20;13.27;;;;;;;4.23;56.70;99826.44;5009779;28;20129;-73
2022/03/20 05:17:09;;;;;;;28.90;13.93;;;;;;;4.09;56.60;99825.00;5010297;28;20109;-71
2022/03/20 05:19:35;;;;;;;21.42;10.82;;;;;;;4.16;57.98;99850.25;5004228;28;21518;-70
2022/03/20 05:22:05;;;;;;;24.70;13.77;;;;;;;4.06;57.53;99826.13;5008569;28;20029;-71
2022/03/20 05:24:31;;;;;;;;;;;;;;;4.18;57.73;99849.13;5003604;28;20483;-70
2022/03/20 05:26:56;;;;;;;28.88;13.38;;;;;;;4.16;57.14;99826.97;5007456;28;19959;-71
2022/03/20 05:29:22;;;;;;;26.95;13.85;;;;;;;4.27;56.91;99833.22;5005838;28;20026;-71
2022/03/20 05:31:48;;;;;;;27.65;13.85;;;;;;;4.35;56.72;99836.91;5006351;28;20494;-71
2022/03/20 05:34:15;;;;;;;27.27;14.13;;;;;;;4.58;56.68;99852.72;5006871;28;20056;-73
2022/03/20 05:36:40;;;;;;;29.00;14.95;;;;;;;4.58;56.63;99868.81;5008383;28;21620;-72
2022/03/20 05:39:06;;;;;;;25.83;13.63;;;;;;;4.40;57.01;99841.84;5003173;28;20101;-72
2022/03/20 05:41:46;;;;;;;30.33;14.13;;;;;;;4.35;56.75;99817.31;5003342;28;20022;-72
2022/03/20 05:44:11;;;;;;;29.80;14.18;;;;;;;4.67;57.19;99861.78;5006302;28;20149;-72
2022/03/20 05:46:38;;;;;;;27.90;14.73;;;;;;;4.61;56.03;99863.16;5003311;28;20098;-72
2022/03/20 05:49:04;;;;;;;28.38;15.05;;;;;;;4.60;56.58;99856.97;5004892;28;20476;-72
2022/03/20 05:51:30;;;;;;;27.70;14.43;;;;;;;4.63;56.77;99857.69;5007379;28;20030;-72
2022/03/20 05:53:56;;;;;;;28.98;15.18;;;;;;;4.60;56.50;99848.91;5005445;28;20038;-72
2022/03/20 05:59:05;;;;;;;28.20;14.15;;;;;;;5.21;54.85;99876.44;5004726;28;20084;-72
2022/03/20 06:01:31;;;;;;;32.03;15.25;;;;;;;5.33;55.50;99877.16;5005929;28;20021;-72
2022/03/20 06:03:56;;;;;;;31.17;15.45;;;;;;;5.43;55.14;99878.84;5006324;28;20505;-72
2022/03/20 06:06:22;;;;;;;29.23;14.77;;;;;;;5.65;54.29;99890.22;5002364;28;20109;-72
2022/03/20 06:08:49;;;;;;;32.88;15.40;;;;;;;5.72;54.64;99894.03;5003354;28;20028;-72
2022/03/20 06:11:14;;;;;;;28.83;14.13;;;;;;;5.86;53.88;99888.19;5006695;28;20034;-72
2022/03/20 06:13:39;;;;;;;23.85;14.18;;;;;;;5.86;53.51;99866.69;5001749;28;20029;-72
2022/03/20 06:16:08;;;;;;;26.23;14.35;;;;;;;6.30;53.01;99893.84;5005907;28;20032;-70
2022/03/20 06:18:34;;;;;;;25.98;15.07;;;;;;;6.25;52.25;99871.94;4999251;28;20511;-76
2022/03/20 06:20:59;;;;;;;33.45;16.25;;;;;;;6.51;51.70;99884.69;5005052;28;20042;-70
2022/03/20 06:23:25;;;;;;;28.23;14.57;;;;;;;6.57;51.86;99892.13;5005771;28;20041;-71
2022/03/20 06:25:53;;;;;;;28.23;14.65;;;;;;;6.85;51.07;99884.03;5005646;28;20041;-74
2022/03/20 06:28:19;;;;;;;26.80;15.15;;;;;;;7.32;50.02;99897.25;5051640;22;20052;-72
2022/03/20 06:30:45;;;;;;;25.83;14.50;;;;;;;7.69;49.23;99905.94;5049535;28;20035;-72
2022/03/20 06:33:10;;;;;;;27.50;14.63;;;;;;;7.40;49.56;99910.78;5052095;28;20104;-72
2022/03/20 06:35:35;;;;;;;32.17;15.27;;;;;;;7.14;50.27;99881.94;5050536;28;20024;-72
2022/03/20 06:38:00;;;;;;;30.08;15.30;;;;;;;7.25;50.23;99897.84;5046224;28;20032;-72
2022/03/20 06:40:26;;;;;;;29.73;15.57;;;;;;;7.28;49.79;99885.09;5028947;28;20083;-73
2022/03/20 06:42:52;;;;;;;26.40;14.73;;;;;;;7.42;49.75;99892.63;5030958;28;20071;-72
2022/03/20 06:45:21;;;;;;;30.13;14.95;;;;;;;7.89;48.52;99884.19;5030775;28;20029;-71
2022/03/20 06:47:46;;;;;;;30.67;15.32;;;;;;;9.26;46.37;99896.63;5031645;28;20064;-72
2022/03/20 06:50:13;;;;;;;28.45;15.27;;;;;;;10.31;43.46;99892.09;5028524;28;20430;-72
2022/03/20 06:52:39;;;;;;;26.13;14.25;;;;;;;11.49;41.01;99882.91;5030651;28;20104;-72
2022/03/20 06:55:05;;;;;;;26.77;14.30;;;;;;;11.35;41.04;99903.50;5028841;28;20172;-72
2022/03/20 06:57:31;;;;;;;29.88;16.15;;;;;;;11.46;40.45;99884.09;5025904;28;20026;-72
2022/03/20 06:59:58;;;;;;;26.30;14.13;;;;;;;12.19;39.11;99901.53;5028419;28;20041;-71
2022/03/20 07:02:24;;;;;;;29.98;15.07;;;;;;;11.85;39.31;99899.34;5048701;28;20085;-72
2022/03/20 07:04:53;;;;;;;28.48;14.88;;;;;;;11.68;40.05;99906.75;5049753;28;20047;-72
2022/03/20 07:07:20;;;;;;;26.65;15.07;;;;;;;11.55;40.22;99907.41;5036881;28;20144;-71
2022/03/20 07:09:45;;;;;;;27.65;16.13;;;;;;;10.27;42.39;99915.03;5035836;28;20398;-71
2022/03/20 07:12:12;;;;;;;29.08;15.43;;;;;;;10.15;43.06;99898.38;5038853;28;20021;-72
2022/03/20 07:14:38;;;;;;;25.98;15.10;;;;;;;11.21;41.24;99923.25;5034002;28;20026;-71
2022/03/20 07:17:09;;;;;;;27.73;15.93;;;;;;;11.61;40.34;99920.22;5045997;28;20029;-71
2022/03/20 07:19:35;;;;;;;27.25;15.20;;;;;;;12.31;38.69;99923.63;5045268;28;20434;-72
2022/03/20 07:22:02;;;;;;;26.13;15.52;;;;;;;12.44;38.72;99928.38;5043293;28;20075;-73
2022/03/20 07:24:28;;;;;;;28.77;15.05;;;;;;;12.87;38.03;99926.66;5041390;28;20033;-72
2022/03/20 07:29:38;;;;;;;26.20;14.38;;;;;;;13.10;36.99;99914.81;5041552;28;20096;-71
2022/03/20 07:32:06;;;;;;;28.20;15.07;;;;;;;12.96;37.49;99935.53;5040074;28;20482;-71
2022/03/20 07:34:33;;;;;;;29.40;15.25;;;;;;;13.27;37.45;99927.13;5040657;28;20032;-72
2022/03/20 07:36:58;;;;;;;25.35;15.25;;;;;;;13.39;36.79;99932.91;5037183;28;20022;-71
2022/03/20 07:39:24;;;;;;;24.98;14.95;;;;;;;12.41;38.10;99923.34;5038521;28;20076;-72
2022/03/20 07:41:49;;;;;;;25.00;15.00;;;;;;;12.35;38.59;99916.78;5046008;28;20060;-71
2022/03/20 07:44:15;;;;;;;26.27;14.57;;;;;;;13.91;36.16;99936.28;5052020;28;20048;-71
2022/03/20 07:46:40;;;;;;;30.13;15.80;;;;;;;14.51;35.27;99923.91;5044142;28;20029;-72
2022/03/20 07:49:07;;;;;;;27.52;15.90;;;;;;;15.30;33.85;99930.72;5042612;28;20065;-70
2022/03/20 07:51:34;;;;;;;28.00;15.77;;;;;;;15.65;33.25;99923.22;5043622;28;20036;-70
2022/03/20 07:53:59;;;;;;;28.42;16.60;;;;;;;15.98;32.90;99933.31;5041519;28;20052;-70
2022/03/20 07:56:25;;;;;;;26.45;16.20;;;;;;;15.84;33.14;99929.75;5044910;28;20025;-70
2022/03/20 07:58:51;;;;;;;26.73;15.70;;;;;;;16.13;31.77;99914.00;5041714;28;20060;-70
2022/03/20 08:01:16;;;;;;;27.73;16.25;;;;;;;17.62;30.79;99925.78;5042145;28;20394;-73
2022/03/20 08:03:41;;;;;;;29.15;16.42;;;;;;;17.68;30.25;99922.13;5040293;28;20037;-71
2022/03/20 08:06:08;;;;;;;27.23;15.98;;;;;;;17.60;29.90;99941.56;5040210;28;20025;-71
2022/03/20 08:08:34;;;;;;;26.23;16.35;;;;;;;16.80;30.55;99896.38;5038297;28;20048;-71
2022/03/20 08:10:59;;;;;;;27.60;15.73;;;;;;;17.34;30.77;99934.38;5053904;28;20044;-71
2022/03/20 08:13:25;;;;;;;26.40;16.27;;;;;;;18.36;29.08;99932.31;5036987;28;20044;-74
2022/03/20 08:15:50;;;;;;;27.98;17.27;;;;;;;19.36;27.80;99928.34;5030831;28;20112;-68
2022/03/20 08:18:15;;;;;;;27.75;16.40;;;;;;;19.98;27.38;99934.38;5030361;28;20398;-75
2022/03/20 08:20:42;;;;;;;25.42;15.52;;;;;;;19.98;26.85;99933.53;5028793;28;20021;-75
2022/03/20 08:23:07;;;;;;;25.10;15.45;;;;;;;19.59;26.95;99931.16;5023321;28;20037;-75
2022/03/20 08:25:33;;;;;;;29.10;16.15;;;;;;;19.86;26.69;99930.81;5021683;28;20037;-74
2022/03/20 08:27:58;;;;;;;24.83;14.88;;;;;;;20.24;26.28;99924.00;5023935;28;20383;-72
2022/03/20 08:30:23;;;;;;;22.38;15.15;;;;;;;20.14;25.77;99943.81;5023284;28;20165;-73
2022/03/20 08:32:52;;;;;;;25.65;16.70;;;;;;;19.68;26.35;99948.19;5022157;28;20040;-71
2022/03/20 08:35:19;;;;;;;26.13;16.27;;;;;;;19.98;26.65;99950.03;5023035;28;20028;-71
2022/03/20 08:37:45;;;;;;;29.25;16.20;;;;;;;20.30;25.89;99936.78;5025713;28;20072;-72
2022/03/20 08:40:15;;;;;;;25.00;15.38;;;;;;;20.07;25.94;99948.63;5025849;28;20038;-72
2022/03/20 08:42:43;;;;;;;26.67;16.92;;;;;;;20.21;26.12;99947.31;5016331;28;20060;-69
2022/03/20 08:45:09;;;;;;;23.60;15.90;;;;;;;20.38;25.68;99941.91;5020006;28;20037;-70
2022/03/20 08:47:36;;;;;;;24.67;15.35;;;;;;;19.14;26.69;99914.31;5024804;28;20124;-72
2022/03/20 08:50:01;;;;;;;25.73;16.15;;;;;;;19.92;26.77;99949.06;5019663;28;20424;-73
2022/03/20 08:52:26;;;;;;;24.70;16.02;;;;;;;19.18;26.91;99954.78;5019716;28;20053;-74
2022/03/20 08:54:51;;;;;;;26.02;16.20;;;;;;;18.79;27.16;99956.13;5024981;28;20017;-73
2022/03/20 08:57:17;;;;;;;25.35;16.08;;;;;;;19.70;26.07;99937.78;5026774;28;20482;-71
2022/03/20 08:59:44;;;;;;;27.30;16.58;;;;;;;20.76;25.65;99946.94;5019377;28;20072;-72
2022/03/20 09:02:09;;;;;;;24.17;15.38;;;;;;;21.55;24.30;99943.56;5027656;28;20057;-74
2022/03/20 09:04:34;;;;;;;28.25;16.15;;;;;;;22.00;24.05;99955.63;5024517;28;20057;-73
2022/03/20 09:07:00;;;;;;;23.88;15.88;;;;;;;21.92;23.90;99958.78;5023932;28;20462;-69
2022/03/20 09:09:25;;;;;;;24.98;16.52;;;;;;;21.83;24.19;99961.97;5022410;28;20033;-73
2022/03/20 09:11:50;;;;;;;24.98;15.95;;;;;;;23.44;22.50;99955.69;5026351;28;20394;-74
2022/03/20 09:14:16;;;;;;;24.75;17.48;;;;;;;22.97;22.55;99959.84;5026352;28;20022;-73
2022/03/20 09:19:26;;;;;;;23.05;15.88;;;;;;;22.49;23.32;99959.44;5022401;28;20052;-72
2022/03/20 09:21:52;;;;;;;25.35;15.65;;;;;;;23.05;22.72;99956.63;5027528;28;20761;-72
2022/03/20 09:24:18;;;;;;;24.98;15.38;;;;;;;22.60;23.24;99943.88;5026572;28;20047;-72
2022/03/20 09:26:43;;;;;;;25.15;16.58;;;;;;;22.74;22.48;99950.72;5022902;28;20052;-70
2022/03/20 09:29:09;;;;;;;23.92;15.75;;;;;;;23.61;22.15;99959.19;5024992;28;20029;-71
2022/03/20 09:31:34;;;;;;;25.25;16.17;;;;;;;22.67;23.05;99971.28;5025054;28;21040;-70
2022/03/20 09:34:01;;;;;;;24.75;16.10;;;;;;;21.49;23.93;99961.06;5024992;28;20048;-70
2022/03/20 09:36:27;;;;;;;27.40;16.45;;;;;;;21.38;24.26;99981.25;5024676;28;20029;-70
2022/03/20 09:38:53;;;;;;;26.65;16.55;;;;;;;21.11;24.40;99994.69;5023690;28;20067;-69
2022/03/20 09:41:18;;;;;;;24.60;16.20;;;;;;;20.90;25.28;99988.75;5018969;28;20049;-70
2022/03/20 09:43:45;;;;;;;28.13;17.42;;;;;;;21.64;24.04;99996.31;5022694;28;20021;-70
2022/03/20 09:46:11;;;;;;;24.92;15.68;;;;;;;22.21;23.51;99999.00;5025615;28;20040;-70
2022/03/20 09:48:37;;;;;;;22.15;15.98;;;;;;;22.28;23.69;99983.13;5023381;28;20037;-74
2022/03/20 09:51:04;;;;;;;25.05;15.65;;;;;;;22.19;23.57;100000.31;5028181;28;20053;-69
2022/03/20 09:53:30;;;;;;;24.52;15.73;;;;;;;22.31;23.09;99987.31;5024982;28;20069;-69
2022/03/20 09:55:56;;;;;;;24.50;16.33;;;;;;;23.10;22.44;99994.50;5025253;28;20033;-70
2022/03/20 09:58:26;;;;;;;23.33;16.05;;;;;;;23.00;22.54;99997.13;5023238;28;20465;-70
2022/03/20 10:00:55;;;;;;;22.33;15.63;;;;;;;22.72;22.48;99994.25;5021729;28;20117;-70
2022/03/20 10:03:23;;;;;;;20.08;15.27;;;;;;;23.93;21.43;99991.59;5029380;28;20044;-70
2022/03/20 10:06:17;;;;;;;21.77;15.38;;;;;;;24.41;21.54;99985.06;5025791;28;20048;-70
2022/03/20 10:08:55;;;;;;;25.25;16.10;;;;;;;25.30;20.99;99996.38;5027623;28;20487;-70
2022/03/20 10:11:20;;;;;;;22.65;15.20;;;;;;;26.32;19.44;99987.41;5022534;28;20083;-70
2022/03/20 10:14:06;;;;;;;23.23;16.58;;;;;;;25.16;19.79;99993.28;5019462;28;20026;-70
2022/03/20 10:16:32;;;;;;;22.10;16.10;;;;;;;24.63;20.86;100004.34;5020903;28;20033;-70
2022/03/20 10:18:57;;;;;;;22.02;15.65;;;;;;;24.61;20.88;100001.00;5020873;28;20088;-70
2022/03/20 10:21:41;;;;;;;21.92;16.02;;;;;;;22.73;22.76;100003.38;5023325;28;20052;-70
2022/03/20 10:24:18;;;;;;;27.27;17.15;;;;;;;20.89;24.50;100011.00;5023843;28;21827;-70
2022/03/20 10:26:44;;;;;;;25.05;16.75;;;;;;;18.92;27.08;100021.78;5025045;28;20479;-70
2022/03/20 10:29:17;;;;;;;26.75;17.08;;;;;;;17.25;29.50;100030.38;5023819;28;20044;-70
2022/03/20 10:31:50;;;;;;;27.98;16.25;;;;;;;17.12;30.34;100021.38;5025168;28;20112;-70
2022/03/20 10:34:16;;;;;;;28.48;17.45;;;;;;;16.35;31.18;100002.81;5023783;28;20056;-70
2022/03/20 10:36:45;;;;;;;27.60;16.67;;;;;;;16.46;31.51;100025.09;5023858;28;20060;-69
2022/03/20 10:39:14;;;;;;;23.58;15.63;;;;;;;15.98;32.22;100024.25;5026116;28;20152;-69
2022/03/20 10:41:40;;;;;;;28.17;16.38;;;;;;;15.61;33.43;100016.59;5023159;28;20039;-70
2022/03/20 10:44:18;;;;;;;27.10;16.48;;;;;;;15.62;32.93;100027.31;5026710;28;20040;-70
2022/03/20 10:46:55;;;;;;;29.30;15.32;;;;;;;15.25;33.71;100026.78;5027703;28;20030;-69
2022/03/20 10:49:21;;;;;;;25.58;16.48;;;;;;;15.32;34.03;100022.16;5022376;28;20036;-70
2022/03/20 10:52:00;;;;;;;26.88;16.30;;;;;;;15.88;33.50;100023.00;5024125;28;20021;-70
2022/03/20 10:54:38;;;;;;;28.85;15.90;;;;;;;16.34;32.43;100019.41;5023218;28;20041;-70
2022/03/20 10:57:05;;;;;;;30.27;16.55;;;;;;;16.91;31.76;100026.06;5024644;28;20032;-70
2022/03/20 10:59:30;;;;;;;29.20;15.98;;;;;;;17.22;32.89;100002.63;5019257;28;20022;-70
2022/03/20 11:01:57;;;;;;;25.63;15.70;;;;;;;17.84;31.10;99994.69;5021335;28;20048;-70
2022/03/20 11:04:23;;;;;;;27.48;16.08;;;;;;;18.28;30.42;100017.53;5022697;28;20029;-70
2022/03/20 11:06:50;;;;;;;28.65;16.20;;;;;;;16.94;31.43;100027.53;5022012;28;20091;-70
2022/03/20 11:09:16;;;;;;;29.50;16.45;;;;;;;17.37;32.53;100016.88;5019141;28;20021;-70
2022/03/20 11:11:47;;;;;;;24.55;15.40;;;;;;;17.75;33.26;100021.47;5020528;28;20041;-70
2022/03/20 11:14:18;;;;;;;24.50;15.43;;;;;;;18.12;32.32;100022.50;5026747;28;20079;-70
2022/03/20 11:16:47;;;;;;;24.25;14.90;;;;;;;19.00;32.13;100012.41;5022790;28;20030;-71
2022/03/20 11:19:13;;;;;;;26.02;16.20;;;;;;;19.26;29.83;100014.00;5016689;28;20029;-70
2022/03/20 11:21:43;;;;;;;22.75;15.60;;;;;;;19.58;29.10;100000.06;5031417;28;20079;-70
2022/03/20 11:24:09;;;;;;;29.65;15.15;;;;;;;20.15;29.80;100005.97;5028528;28;20033;-70
2022/03/20 11:26:38;;;;;;;29.30;15.77;;;;;;;20.43;28.11;100002.50;5018182;28;20044;-70
2022/03/20 11:29:08;;;;;;;29.13;15.95;;;;;;;19.45;30.26;100003.81;5019713;28;20022;-71
2022/03/20 11:31:36;;;;;;;30.75;16.75;;;;;;;19.56;29.48;99988.47;5026351;28;20099;-71
2022/03/20 11:34:06;;;;;;;25.88;16.15;;;;;;;19.43;30.41;99998.53;5020970;28;20502;-70
2022/03/20 11:36:33;;;;;;;25.63;16.38;;;;;;;19.10;30.77;100006.38;5024221;28;20487;-70
2022/03/20 11:39:09;;;;;;;26.55;16.05;;;;;;;19.48;30.06;100006.91;5022289;28;20040;-70
2022/03/20 11:41:34;;;;;;;26.38;15.80;;;;;;;19.45;29.94;99999.16;5025114;28;20652;-70
2022/03/20 11:44:15;;;;;;;24.65;16.35;;;;;;;19.44;29.85;100008.47;5027852;28;20033;-70
2022/03/20 11:46:43;;;;;;;25.13;15.88;;;;;;;18.83;30.84;100001.19;5021995;28;20033;-70
2022/03/20 11:49:17;;;;;;;24.00;15.63;;;;;;;18.42;32.70;100008.16;5020975;28;20116;-70
2022/03/20 11:52:07;;;;;;;23.75;15.13;;;;;;;18.53;32.36;99999.16;5024942;28;20106;-70